アピア の空港の天気 - METARとTAF

ファレオロ国際空港(サモア) ( NSFA / APW ) - サモア アピア
飛行場実況気象(Metar)
観測時間07/17 22:00 WSST (07/17 09:00 UTC)
風向・風速東南東 2m/s
視程10km以上
天気現象
少しの雲 雲底高度 790m
気温24℃
湿度94%
気圧1011hPa
METARNSFA 170900Z 11004KT 9999 FEW026 24/23 Q1011 NOSIG
過去の天気等 Google飛行場航空写真 Wunderground天気予報

過去48時間のMETAR

飛行場予報(TAF)
発表時間: 7/17 18:07 WSST (7/17 05:07 UTC)
予報対象時間: 17日19時 WSST ~ 18日19時 WSST
風向・風速東北東 4m/s
視程10km以上
全天の4割程度の雲 雲底高度 610m
TAF NSFA 170507Z 1706/1806 06008KT 9999 SCT020